Time;durP1;ratioP1;P1;durP2;ratioP2;P2;SDS_P1;SDS_P2;PMS_P1;PMS_P2;Temp;Humidity;BMP_temperature;BMP_pressure;BME280_temperature;BME280_humidity;BME280_pressure;Samples;Min_cycle;Max_cycle;Signal;HPM_P1;HPM_P2
2022/07/18 00:00:48;;;;;;;3.33;1.70;;;;;;;10.12;66.71;98177.53;1788564;80;25219;-76
2022/07/18 00:03:14;;;;;;;4.60;1.82;;;;;;;10.11;66.63;98181.25;1788583;80;25737;-76
2022/07/18 00:05:42;;;;;;;4.53;2.00;;;;;;;10.08;66.65;98184.31;1788354;80;26411;-77
2022/07/18 00:08:08;;;;;;;4.35;1.55;;;;;;;10.05;66.73;98183.34;1788582;80;27365;-77
2022/07/18 00:10:35;;;;;;;5.97;1.98;;;;;;;10.03;66.84;98181.33;1788316;80;25665;-78
2022/07/18 00:13:01;;;;;;;3.42;1.77;;;;;;;9.99;66.81;98178.20;1788405;80;25691;-77
2022/07/18 00:15:28;;;;;;;3.10;1.50;;;;;;;9.96;66.77;98181.78;1788514;78;25763;-77
2022/07/18 00:17:54;;;;;;;4.70;1.87;;;;;;;9.91;66.84;98178.28;1788490;80;25878;-77
2022/07/18 00:20:21;;;;;;;2.40;1.70;;;;;;;9.90;66.95;98178.50;1788509;80;27437;-77
2022/07/18 00:22:47;;;;;;;3.27;1.87;;;;;;;9.88;67.02;98177.34;1788440;80;25641;-76
2022/07/18 00:25:14;;;;;;;4.10;2.00;;;;;;;9.86;67.13;98181.23;1788618;80;25690;-76
2022/07/18 00:27:40;;;;;;;2.92;1.67;;;;;;;9.80;67.11;98177.42;1788500;80;25733;-77
2022/07/18 00:30:09;;;;;;;2.45;1.90;;;;;;;9.74;67.17;98181.72;1788659;80;25429;-77
2022/07/18 00:32:36;;;;;;;4.90;1.75;;;;;;;9.66;67.37;98177.75;1788484;80;27358;-77
2022/07/18 00:35:02;;;;;;;4.72;1.80;;;;;;;9.64;67.48;98181.17;1788601;80;25721;-77
2022/07/18 00:37:29;;;;;;;2.55;1.72;;;;;;;9.65;67.65;98187.40;1788645;80;25239;-77
2022/07/18 00:39:55;;;;;;;7.55;2.33;;;;;;;9.64;67.66;98181.69;1788476;80;25618;-77
2022/07/18 00:42:22;;;;;;;4.42;1.70;;;;;;;9.63;67.79;98188.09;1787093;78;25654;-78
2022/07/18 00:44:54;;;;;;;4.90;2.12;;;;;;;9.60;67.74;98186.60;1786577;80;26853;-76
2022/07/18 00:47:21;;;;;;;;;;;;;;;9.56;67.78;98178.55;1786297;80;25666;-77
2022/07/18 00:49:48;;;;;;;2.08;1.77;;;;;;;9.56;68.24;98189.33;1763858;81;25675;-78
2022/07/18 00:52:15;;;;;;;4.30;1.77;;;;;;;9.53;67.99;98191.08;1797180;79;25711;-76
2022/07/18 00:54:41;;;;;;;2.12;1.57;;;;;;;9.50;67.95;98191.44;1763611;81;25647;-77
2022/07/18 00:57:08;;;;;;;3.58;2.10;;;;;;;9.46;67.91;98190.63;1797127;79;27360;-76
2022/07/18 01:02:21;;;;;;;2.87;1.57;;;;;;;9.39;68.01;98190.55;1797191;79;25737;-77
2022/07/18 01:04:47;;;;;;;3.67;1.92;;;;;;;9.37;68.05;98189.38;1797630;79;25675;-76
2022/07/18 01:07:14;;;;;;;3.08;1.72;;;;;;;9.34;68.13;98192.95;1797580;79;25664;-78
2022/07/18 01:09:41;;;;;;;4.45;1.45;;;;;;;9.31;68.13;98187.41;1797552;79;27960;-77
2022/07/18 01:12:09;;;;;;;3.52;1.67;;;;;;;9.29;68.20;98185.95;1797517;79;25705;-77
2022/07/18 01:14:36;;;;;;;1.85;1.40;;;;;;;9.27;68.22;98185.30;1797507;79;25763;-76
2022/07/18 01:17:08;;;;;;;3.62;1.60;;;;;;;9.22;68.27;98189.88;1797502;79;25788;-77
2022/07/18 01:19:36;;;;;;;4.92;1.45;;;;;;;9.19;68.36;98185.35;1791292;79;25783;-78
2022/07/18 01:22:03;;;;;;;4.05;1.70;;;;;;;9.17;68.42;98181.52;1797486;79;28156;-77
2022/07/18 01:24:29;;;;;;;2.58;1.60;;;;;;;9.16;68.45;98181.70;1797390;79;25716;-78
2022/07/18 01:26:56;;;;;;;2.60;1.70;;;;;;;9.10;68.54;98179.22;1797607;79;25710;-77
2022/07/18 01:29:22;;;;;;;3.75;1.70;;;;;;;9.05;68.65;98176.77;1797559;79;25655;-77
2022/07/18 01:31:49;;;;;;;4.87;1.67;;;;;;;9.02;68.67;98175.27;1797493;79;25807;-77
2022/07/18 01:34:23;;;;;;;4.60;1.92;;;;;;;9.01;68.68;98168.20;1797606;79;27442;-77
2022/07/18 01:36:49;;;;;;;4.30;1.75;;;;;;;9.02;68.77;98169.38;1749507;81;25790;-78
2022/07/18 01:39:16;;;;;;;4.78;1.57;;;;;;;9.00;68.79;98166.02;1729163;82;25739;-78
2022/07/18 01:41:43;;;;;;;3.37;1.80;;;;;;;8.99;68.84;98167.03;1742943;81;25805;-78
2022/07/18 01:44:09;;;;;;;2.72;1.65;;;;;;;8.97;68.81;98165.53;1726835;83;25826;-77
2022/07/18 01:46:36;;;;;;;2.60;1.80;;;;;;;8.94;68.79;98163.20;1742785;82;27426;-78
2022/07/18 01:49:03;;;;;;;6.00;1.92;;;;;;;8.91;68.88;98164.94;1727156;83;25779;-78
2022/07/18 01:51:29;;;;;;;4.70;1.85;;;;;;;8.91;69.02;98162.25;1742695;82;25918;-77
2022/07/18 01:54:01;;;;;;;2.83;1.80;;;;;;;8.89;69.00;98154.34;1727110;83;25859;-78
2022/07/18 01:56:26;;;;;;;4.65;1.60;;;;;;;8.87;68.95;98155.55;1727199;83;25751;-77
2022/07/18 01:58:53;;;;;;;4.12;1.80;;;;;;;8.82;69.02;98149.85;1727238;83;28190;-78
2022/07/18 02:01:19;;;;;;;3.77;1.62;;;;;;;8.80;69.03;98155.45;1727201;83;25842;-77
2022/07/18 02:03:46;;;;;;;4.17;1.65;;;;;;;8.79;69.12;98154.28;1727071;83;25751;-76
2022/07/18 02:06:12;;;;;;;5.47;1.87;;;;;;;8.76;69.35;98166.23;1727247;83;26516;-77
2022/07/18 02:08:39;;;;;;;4.78;1.95;;;;;;;8.74;69.37;98157.50;1727352;83;25962;-76
2022/07/18 02:11:05;;;;;;;2.20;1.40;;;;;;;8.73;69.40;98159.86;1727206;83;26826;-77
2022/07/18 02:13:32;;;;;;;2.30;1.50;;;;;;;8.72;69.45;98159.53;1727140;83;25870;-77
2022/07/18 02:15:58;;;;;;;2.80;1.70;;;;;;;8.69;69.49;98154.54;1727215;83;25776;-76
2022/07/18 02:18:25;;;;;;;2.85;1.70;;;;;;;8.68;69.48;98153.37;1727180;83;25761;-76
2022/07/18 02:20:51;;;;;;;4.25;2.12;;;;;;;8.70;69.50;98160.73;1727480;83;25755;-76
2022/07/18 02:23:18;;;;;;;2.67;1.92;;;;;;;8.65;69.58;98154.05;1727270;83;28327;-75
2022/07/18 02:25:44;;;;;;;10.68;2.30;;;;;;;8.66;69.66;98152.20;1727206;83;25800;-78
2022/07/18 02:28:11;;;;;;;3.40;1.72;;;;;;;8.68;69.69;98156.06;1727244;83;26025;-78
2022/07/18 02:30:37;;;;;;;3.45;1.70;;;;;;;8.65;69.69;98157.25;1727237;83;25822;-77
2022/07/18 02:33:04;;;;;;;3.27;1.95;;;;;;;8.63;69.63;98156.59;1740217;80;25806;-78
2022/07/18 02:35:31;;;;;;;3.40;1.70;;;;;;;8.60;69.65;98158.29;1782463;80;27417;-78
2022/07/18 02:37:57;;;;;;;2.85;1.85;;;;;;;8.58;69.68;98156.28;1782765;80;25415;-77
2022/07/18 02:40:24;;;;;;;1.82;1.52;;;;;;;8.57;69.71;98155.98;1782938;80;25697;-78
2022/07/18 02:42:50;;;;;;;2.15;1.75;;;;;;;8.56;69.74;98155.66;1782771;79;25703;-78
2022/07/18 02:45:17;;;;;;;4.95;2.00;;;;;;;8.52;69.85;98151.13;1782534;80;25795;-78
2022/07/18 02:47:43;;;;;;;5.70;1.87;;;;;;;8.51;69.88;98156.69;1782773;80;27398;-76
2022/07/18 02:50:11;;;;;;;3.27;1.70;;;;;;;8.46;70.11;98155.03;1782848;80;25726;-77
2022/07/18 02:52:40;;;;;;;4.35;2.02;;;;;;;8.42;70.19;98166.68;1782894;80;25719;-77
2022/07/18 02:55:08;;;;;;;2.98;1.72;;;;;;;8.40;70.23;98155.27;1782801;80;26117;-77
2022/07/18 02:57:35;;;;;;;1.92;1.40;;;;;;;8.35;70.28;98159.48;1782855;80;26323;-77
2022/07/18 03:00:04;;;;;;;4.67;1.90;;;;;;;8.33;70.33;98166.42;1782877;80;27361;-77
2022/07/18 03:02:31;;;;;;;8.30;1.70;;;;;;;8.32;70.29;98163.91;1750518;81;25927;-76
2022/07/18 03:04:58;;;;;;;2.70;1.80;;;;;;;8.29;70.39;98169.93;1750614;81;26500;-76
2022/07/18 03:07:24;;;;;;;5.35;2.40;;;;;;;8.28;70.43;98173.64;1750686;81;25824;-76
2022/07/18 03:09:51;;;;;;;5.05;2.77;;;;;;;8.24;70.52;98168.27;1750642;81;25857;-75
2022/07/18 03:12:18;;;;;;;4.85;4.10;;;;;;;8.26;70.60;98177.00;1750588;81;27378;-77
2022/07/18 03:14:44;;;;;;;6.72;4.10;;;;;;;8.26;70.76;98179.70;1750452;81;25810;-76
2022/07/18 03:17:11;;;;;;;4.83;4.30;;;;;;;8.25;70.76;98175.33;1750639;81;25797;-77
2022/07/18 03:19:38;;;;;;;7.20;3.37;;;;;;;8.27;70.84;98171.95;1750766;81;25928;-78
2022/07/18 03:22:05;;;;;;;3.98;2.27;;;;;;;8.28;70.79;98171.45;1750909;81;25746;-79
2022/07/18 03:24:32;;;;;;;3.30;2.25;;;;;;;8.26;70.80;98168.94;1750608;81;27587;-77
2022/07/18 03:26:59;;;;;;;4.08;2.42;;;;;;;8.27;70.84;98172.46;1750637;81;25884;-76
2022/07/18 03:29:26;;;;;;;4.33;1.95;;;;;;;8.27;70.90;98174.65;1750536;81;25782;-77
2022/07/18 03:31:53;;;;;;;4.22;1.90;;;;;;;8.26;70.95;98167.59;1750627;81;26099;-77
2022/07/18 03:34:20;;;;;;;3.27;2.25;;;;;;;8.30;70.94;98169.42;1750300;81;52765;-78
2022/07/18 03:36:47;;;;;;;4.83;2.00;;;;;;;8.29;71.02;98176.66;1750698;81;27444;-77
2022/07/18 03:39:14;;;;;;;6.42;1.80;;;;;;;8.30;71.11;98175.64;1750336;81;25747;-78
2022/07/18 03:41:41;;;;;;;4.75;1.65;;;;;;;8.32;71.18;98182.23;1750566;81;26446;-76
2022/07/18 03:44:08;;;;;;;3.47;1.82;;;;;;;8.33;71.25;98181.72;1750570;81;25778;-78
2022/07/18 03:46:35;;;;;;;2.08;1.62;;;;;;;8.35;71.34;98182.35;1750679;81;25853;-76
2022/07/18 03:49:03;;;;;;;3.42;1.65;;;;;;;8.36;71.50;98178.66;1750683;81;27025;-77
2022/07/18 03:51:29;;;;;;;5.30;2.08;;;;;;;8.39;71.55;98192.59;1750459;81;25789;-78
2022/07/18 03:53:56;;;;;;;2.87;2.00;;;;;;;8.40;71.66;98192.92;1750489;81;25800;-76
2022/07/18 03:56:22;;;;;;;4.85;2.15;;;;;;;8.44;71.70;98185.34;1750650;81;25731;-77
2022/07/18 03:58:49;;;;;;;4.58;2.33;;;;;;;8.48;71.70;98189.33;1750518;81;25719;-77
2022/07/18 04:01:15;;;;;;;6.60;3.33;;;;;;;8.49;71.76;98186.97;1750723;81;27312;-77
2022/07/18 04:03:42;;;;;;;8.40;5.62;;;;;;;8.52;71.80;98186.62;1750590;81;25843;-77
2022/07/18 04:06:09;;;;;;;12.88;7.58;;;;;;;8.56;71.88;98187.95;1770584;80;25295;-75
2022/07/18 04:08:35;;;;;;;14.05;7.22;;;;;;;8.59;71.92;98185.70;1782751;80;25698;-78
2022/07/18 04:11:02;;;;;;;12.58;6.67;;;;;;;8.61;71.96;98181.50;1782819;80;25647;-78
2022/07/18 04:13:29;;;;;;;6.95;4.30;;;;;;;8.66;72.02;98183.16;1782788;80;27412;-77
2022/07/18 04:15:55;;;;;;;5.10;3.87;;;;;;;8.69;72.10;98177.41;1782747;80;25995;-76
2022/07/18 04:18:22;;;;;;;8.15;4.12;;;;;;;8.73;72.19;98181.91;1782887;80;25786;-78
2022/07/18 04:20:48;;;;;;;7.40;3.20;;;;;;;8.75;72.35;98179.37;1782750;80;25651;-77
2022/07/18 04:23:18;;;;;;;5.00;2.65;;;;;;;8.81;72.40;98185.39;1782379;80;25750;-76
2022/07/18 04:25:44;;;;;;;3.30;2.50;;;;;;;8.86;72.47;98185.66;1783007;80;28100;-77
2022/07/18 04:28:13;;;;;;;3.90;2.70;;;;;;;8.92;72.44;98188.16;1782535;80;25795;-76
2022/07/18 04:30:41;;;;;;;3.52;2.60;;;;;;;8.94;72.50;98192.31;1782914;80;25720;-76
2022/07/18 04:33:10;;;;;;;5.05;2.85;;;;;;;8.99;72.47;98190.44;1782863;80;26394;-76
2022/07/18 04:35:39;;;;;;;3.98;2.75;;;;;;;9.03;72.60;98188.55;1782919;80;25628;-76
2022/07/18 04:38:07;;;;;;;7.30;4.12;;;;;;;9.10;72.60;98187.80;1782845;80;27455;-76
2022/07/18 04:40:34;;;;;;;11.73;8.20;;;;;;;9.14;72.71;98188.61;1782735;80;25728;-76
2022/07/18 04:43:01;;;;;;;12.88;8.75;;;;;;;9.20;72.73;98188.38;1788950;79;25653;-76
2022/07/18 04:45:27;;;;;;;12.00;7.60;;;;;;;9.24;72.70;98188.34;1796635;79;26344;-77
2022/07/18 04:47:57;;;;;;;8.95;5.08;;;;;;;9.29;72.80;98189.98;1796880;79;25756;-76
2022/07/18 04:50:24;;;;;;;5.10;3.77;;;;;;;9.35;72.96;98186.55;1796877;79;27394;-77
2022/07/18 04:52:52;;;;;;;4.55;2.80;;;;;;;9.40;72.92;98189.53;1796695;79;25816;-77
2022/07/18 04:55:21;;;;;;;6.85;3.27;;;;;;;9.46;72.86;98187.94;1796804;79;25773;-77
2022/07/18 04:57:48;;;;;;;6.87;2.95;;;;;;;9.52;72.90;98193.44;1796901;79;25684;-76
2022/07/18 05:00:18;;;;;;;5.03;2.80;;;;;;;9.58;72.87;98185.95;1796939;79;25701;-76
2022/07/18 05:02:49;;;;;;;3.92;2.80;;;;;;;9.66;72.94;98189.88;1796689;79;27543;-77
2022/07/18 05:05:18;;;;;;;6.60;2.85;;;;;;;9.75;73.07;98190.13;1796783;79;25459;-77
2022/07/18 05:07:46;;;;;;;4.92;2.22;;;;;;;9.84;73.05;98190.86;1796861;79;25704;-76
2022/07/18 05:10:15;;;;;;;5.28;2.83;;;;;;;9.92;73.07;98188.56;1796830;79;25777;-76
2022/07/18 05:12:45;;;;;;;4.37;2.40;;;;;;;10.00;73.10;98189.83;1796924;79;25620;-77
2022/07/18 05:15:15;;;;;;;6.22;2.50;;;;;;;10.10;73.25;98186.31;1796943;79;27514;-77
2022/07/18 05:17:43;;;;;;;3.35;2.15;;;;;;;10.19;73.32;98184.36;1796676;79;25724;-77
2022/07/18 05:20:14;;;;;;;3.47;2.37;;;;;;;10.27;73.40;98185.08;1796901;79;25452;-77
2022/07/18 05:22:41;;;;;;;7.15;2.65;;;;;;;10.37;73.36;98188.33;1792799;79;26461;-78
2022/07/18 05:25:10;;;;;;;7.03;2.70;;;;;;;10.46;73.37;98186.34;1796608;79;25699;-78
2022/07/18 05:27:37;;;;;;;5.10;2.87;;;;;;;10.55;73.38;98178.94;1796890;79;28062;-78
2022/07/18 05:30:07;;;;;;;4.30;2.47;;;;;;;10.65;73.37;98168.66;1796859;79;25722;-78
2022/07/18 05:32:34;;;;;;;7.12;3.00;;;;;;;10.75;73.41;98174.56;1796903;79;25792;-77
2022/07/18 05:35:01;;;;;;;4.53;2.30;;;;;;;10.86;73.34;98170.53;1796916;79;25768;-77
2022/07/18 05:37:27;;;;;;;5.72;2.52;;;;;;;10.94;73.24;98171.22;1797135;79;25635;-78
2022/07/18 05:39:54;;;;;;;5.33;2.95;;;;;;;11.05;73.19;98172.55;1796944;79;27419;-77
2022/07/18 05:42:21;;;;;;;6.08;2.72;;;;;;;11.14;73.17;98162.74;1796843;79;25596;-78
2022/07/18 05:44:47;;;;;;;5.05;2.62;;;;;;;11.26;73.11;98164.38;1796755;79;25655;-77
2022/07/18 05:47:14;;;;;;;6.67;2.67;;;;;;;11.36;72.87;98164.87;1796913;79;25831;-76
2022/07/18 05:49:40;;;;;;;5.87;2.45;;;;;;;11.46;72.67;98168.59;1796963;79;25413;-77
2022/07/18 05:52:07;;;;;;;7.78;2.25;;;;;;;11.58;72.61;98163.47;1797078;79;27422;-78
2022/07/18 05:54:34;;;;;;;5.33;2.42;;;;;;;11.68;72.56;98162.06;1796795;79;25729;-77
2022/07/18 05:57:01;;;;;;;4.35;2.05;;;;;;;11.83;72.62;98156.01;1797018;79;25250;-77
2022/07/18 05:59:27;;;;;;;6.20;2.17;;;;;;;11.98;72.57;98156.39;1796968;79;25721;-77
2022/07/18 06:01:54;;;;;;;7.45;1.90;;;;;;;12.10;72.32;98148.84;1796960;79;25702;-77
2022/07/18 06:04:21;;;;;;;6.12;2.15;;;;;;;12.20;72.04;98150.64;1797073;79;27523;-76
2022/07/18 06:06:49;;;;;;;5.05;2.17;;;;;;;12.31;71.89;98153.30;1796842;79;25698;-78
2022/07/18 06:09:17;;;;;;;4.45;2.15;;;;;;;12.43;71.83;98150.31;1796950;79;25679;-78
2022/07/18 06:11:45;;;;;;;5.08;1.90;;;;;;;12.55;71.46;98141.90;1796877;79;25714;-78
2022/07/18 06:14:11;;;;;;;4.67;2.17;;;;;;;12.67;71.19;98146.70;1796970;79;25947;-78
2022/07/18 06:16:38;;;;;;;4.33;2.05;;;;;;;12.78;71.42;98137.96;1796853;79;27361;-77
2022/07/18 06:19:04;;;;;;;3.15;2.10;;;;;;;12.92;71.33;98136.93;1796961;79;25843;-77
2022/07/18 06:21:31;;;;;;;3.95;2.00;;;;;;;13.06;70.98;98130.95;1796924;79;25743;-77
2022/07/18 06:23:57;;;;;;;5.17;1.70;;;;;;;13.19;70.88;98126.39;1796604;79;25732;-78
2022/07/18 06:26:24;;;;;;;3.20;2.10;;;;;;;13.41;70.88;98128.85;1796642;79;25691;-78
2022/07/18 06:28:50;;;;;;;4.30;1.90;;;;;;;13.57;70.28;98127.05;1796935;79;27591;-77
2022/07/18 06:31:17;;;;;;;3.55;2.00;;;;;;;13.72;70.08;98124.09;1796980;79;25639;-77
2022/07/18 06:33:44;;;;;;;6.05;2.42;;;;;;;13.84;70.41;98120.50;1796990;79;25770;-77
2022/07/18 06:36:11;;;;;;;4.75;2.12;;;;;;;13.98;70.46;98115.86;1796940;79;26607;-77
2022/07/18 06:38:39;;;;;;;3.45;2.22;;;;;;;14.12;70.22;98123.42;1796994;79;25662;-78
2022/07/18 06:41:06;;;;;;;3.50;1.80;;;;;;;14.29;70.33;98121.32;1796650;79;27426;-77
2022/07/18 06:43:33;;;;;;;5.42;2.20;;;;;;;14.46;69.76;98116.77;1791126;79;25892;-77
2022/07/18 06:46:00;;;;;;;5.95;2.00;;;;;;;14.64;69.39;98114.12;1782645;80;25763;-77
2022/07/18 06:48:28;;;;;;;3.67;1.90;;;;;;;14.80;68.79;98110.05;1783149;80;26225;-78
2022/07/18 06:50:54;;;;;;;5.78;2.10;;;;;;;14.95;68.62;98115.47;1783200;80;25708;-77
2022/07/18 06:53:21;;;;;;;7.20;2.10;;;;;;;15.08;68.47;98112.64;1783005;80;27353;-77
2022/07/18 06:55:47;;;;;;;7.90;1.90;;;;;;;15.21;68.02;98115.77;1783048;80;25663;-77
2022/07/18 06:58:14;;;;;;;3.67;1.90;;;;;;;15.33;67.23;98116.70;1783075;80;25701;-77
2022/07/18 07:00:41;;;;;;;3.95;1.80;;;;;;;15.44;66.84;98111.88;1782753;80;25759;-78
2022/07/18 07:03:07;;;;;;;3.90;2.00;;;;;;;15.50;66.59;98109.59;1783061;80;25749;-78
2022/07/18 07:05:34;;;;;;;3.98;1.90;;;;;;;15.58;66.21;98109.05;1782977;80;28066;-78
2022/07/18 07:08:00;;;;;;;3.90;2.05;;;;;;;15.67;66.05;98109.88;1782926;80;25719;-78
2022/07/18 07:10:27;;;;;;;4.15;1.90;;;;;;;15.80;65.69;98108.89;1783150;80;25726;-78
2022/07/18 07:12:53;;;;;;;4.62;2.00;;;;;;;15.93;65.29;98115.54;1783067;80;25719;-78
2022/07/18 07:15:23;;;;;;;4.75;1.67;;;;;;;16.05;65.12;98106.91;1783172;80;25663;-77
2022/07/18 07:17:51;;;;;;;3.87;2.17;;;;;;;16.19;65.30;98104.81;1783001;80;28137;-78
2022/07/18 07:20:20;;;;;;;3.95;1.85;;;;;;;16.34;65.50;98105.23;1782677;80;25635;-79
2022/07/18 07:22:56;;;;;;;4.55;2.20;;;;;;;16.48;64.65;98103.16;1783189;80;25735;-78
2022/07/18 07:25:25;;;;;;;7.65;2.30;;;;;;;16.58;64.11;98098.80;1782966;80;25539;-78
2022/07/18 07:27:53;;;;;;;3.55;1.92;;;;;;;16.71;63.74;98097.80;1782855;80;25850;-78
2022/07/18 07:30:20;;;;;;;3.87;1.90;;;;;;;16.87;63.73;98102.58;1782891;80;27371;-78
2022/07/18 07:32:47;;;;;;;3.62;1.85;;;;;;;17.02;63.38;98094.48;1782922;80;25653;-78
2022/07/18 07:35:16;;;;;;;4.12;2.30;;;;;;;17.14;63.49;98090.70;1782657;80;25740;-78
2022/07/18 07:37:47;;;;;;;4.20;2.05;;;;;;;17.28;63.42;98096.73;1782875;80;25780;-78
2022/07/18 07:40:15;;;;;;;7.70;2.22;;;;;;;17.46;63.44;98097.15;1721492;83;26185;-78
2022/07/18 07:42:43;;;;;;;3.87;1.98;;;;;;;17.66;63.04;98096.79;1721419;83;27078;-78
2022/07/18 07:45:12;;;;;;;4.80;1.70;;;;;;;17.83;62.59;98094.99;1733296;82;25912;-78
2022/07/18 07:47:38;;;;;;;4.12;1.75;;;;;;;18.05;62.60;98093.27;1734338;82;25814;-77
2022/07/18 07:50:07;;;;;;;3.52;2.05;;;;;;;18.29;62.18;98090.73;1734334;82;26456;-79
2022/07/18 07:52:34;;;;;;;4.22;1.42;;;;;;;18.50;61.46;98090.58;1734370;82;26771;-79
2022/07/18 07:55:01;;;;;;;1.90;1.47;;;;;;;18.73;60.13;98087.45;1734509;82;27381;-78
2022/07/18 07:57:28;;;;;;;3.35;1.75;;;;;;;19.02;59.07;98094.52;1734400;82;25820;-77
2022/07/18 07:59:55;;;;;;;4.67;2.00;;;;;;;19.39;58.76;98087.98;1734391;82;25816;-78
2022/07/18 08:02:21;;;;;;;2.35;1.37;;;;;;;19.81;57.96;98094.34;1734510;82;26027;-78
2022/07/18 08:04:49;;;;;;;5.03;1.50;;;;;;;20.07;56.94;98100.44;1734398;82;25700;-77
2022/07/18 08:07:17;;;;;;;3.08;1.37;;;;;;;20.20;56.23;98103.33;1734412;82;27394;-78
2022/07/18 08:09:43;;;;;;;3.47;1.50;;;;;;;20.42;55.63;98106.36;1734152;82;25789;-78
2022/07/18 08:12:10;;;;;;;2.80;1.50;;;;;;;20.72;55.08;98103.66;1734348;82;25901;-79
2022/07/18 08:14:39;;;;;;;4.40;1.60;;;;;;;21.23;54.43;98106.34;1734401;82;25868;-79
2022/07/18 08:17:05;;;;;;;3.77;1.60;;;;;;;21.72;53.68;98100.64;1734221;82;26991;-80
2022/07/18 08:19:31;;;;;;;3.77;1.30;;;;;;;22.10;52.76;98103.58;1734392;82;27590;-79
2022/07/18 08:21:58;;;;;;;3.12;1.40;;;;;;;22.56;52.02;98106.79;1734294;82;25665;-79
2022/07/18 08:24:24;;;;;;;4.87;1.47;;;;;;;22.97;51.16;98105.48;1734052;82;25736;-81
2022/07/18 08:26:51;;;;;;;3.47;1.82;;;;;;;23.25;50.34;98104.13;1734372;82;26491;-80
2022/07/18 08:29:17;;;;;;;6.15;1.70;;;;;;;23.51;49.74;98102.20;1734269;82;25854;-80
2022/07/18 08:31:44;;;;;;;2.22;1.40;;;;;;;23.74;48.91;98101.61;1734450;82;27471;-81
2022/07/18 08:34:10;;;;;;;3.65;1.30;;;;;;;23.94;48.65;98106.23;1734310;82;25790;-77
2022/07/18 08:36:37;;;;;;;3.55;1.57;;;;;;;24.25;47.96;98101.47;1734471;82;25726;-81
2022/07/18 08:39:04;;;;;;;2.98;1.10;;;;;;;24.46;47.08;98099.43;1734459;82;25680;-79
2022/07/18 08:41:30;;;;;;;2.85;1.30;;;;;;;24.76;46.63;98100.06;1734446;82;26507;-81
2022/07/18 08:43:58;;;;;;;2.75;1.02;;;;;;;25.19;45.80;98084.33;1776132;79;27485;-81
2022/07/18 08:46:26;;;;;;;4.47;1.55;;;;;;;25.48;45.16;98087.35;1796534;79;25678;-81
2022/07/18 08:48:55;;;;;;;2.90;1.40;;;;;;;25.76;45.20;98078.81;1796940;79;26416;-82
2022/07/18 08:51:22;;;;;;;4.62;1.87;;;;;;;25.96;44.30;98076.39;1796820;79;25739;-81
2022/07/18 08:53:51;;;;;;;3.45;1.50;;;;;;;25.72;43.72;98078.33;1796891;79;25662;-80
2022/07/18 08:56:18;;;;;;;2.05;1.47;;;;;;;25.38;43.36;98072.81;1796852;79;28210;-81
2022/07/18 08:58:45;;;;;;;2.87;1.60;;;;;;;25.42;43.14;98075.27;1796816;79;26240;-81
2022/07/18 09:01:11;;;;;;;3.35;1.85;;;;;;;25.71;43.15;98070.59;1796967;79;25889;-82
2022/07/18 09:03:38;;;;;;;3.12;1.87;;;;;;;26.08;42.06;98066.29;1796991;79;25736;-80
2022/07/18 09:06:10;;;;;;;8.18;2.22;;;;;;;26.38;41.85;98065.09;1796912;79;25861;-81
2022/07/18 09:08:41;;;;;;;4.40;1.72;;;;;;;26.53;41.42;98063.50;1796813;79;27384;-81
2022/07/18 09:11:11;;;;;;;4.03;2.13;;;;;;;26.66;41.17;98066.08;1797122;79;25808;-81
2022/07/18 09:13:42;;;;;;;4.05;1.32;;;;;;;26.81;40.41;98062.50;1726635;82;25812;-80
2022/07/18 09:16:14;;;;;;;3.75;1.72;;;;;;;27.12;40.48;98056.52;1755511;81;25714;-82
2022/07/18 09:18:47;;;;;;;3.87;1.60;;;;;;;27.34;40.02;98053.91;1755535;81;26196;-81
2022/07/18 09:21:18;;;;;;;1.27;1.15;;;;;;;27.67;39.42;98055.27;1755390;80;27727;-81
2022/07/18 09:23:48;;;;;;;4.97;1.60;;;;;;;27.82;39.22;98052.20;1755446;81;25900;-81
2022/07/18 09:26:36;;;;;;;5.00;2.07;;;;;;;28.05;39.12;98047.02;1755791;81;25829;-81
2022/07/18 09:29:04;;;;;;;1.65;1.20;;;;;;;28.27;37.94;98051.84;1698135;84;25817;-81
2022/07/18 09:31:30;;;;;;;2.55;1.40;;;;;;;28.39;37.85;98048.54;1698087;82;25781;-80
2022/07/18 09:34:01;;;;;;;3.92;1.22;;;;;;;28.54;37.44;98053.77;1698032;84;26802;-80
2022/07/18 09:36:28;;;;;;;3.30;1.30;;;;;;;28.78;36.96;98049.31;1698097;84;25838;-81
2022/07/18 09:38:56;;;;;;;4.42;1.70;;;;;;;28.99;36.16;98051.31;1698134;84;25782;-81
2022/07/18 09:41:30;;;;;;;2.10;1.35;;;;;;;29.03;35.54;98050.95;1674667;84;25872;-81
2022/07/18 09:43:57;;;;;;;3.35;1.40;;;;;;;28.92;35.42;98055.11;1698054;82;25853;-81
2022/07/18 09:46:23;;;;;;;3.50;1.47;;;;;;;29.10;35.50;98051.09;1697929;84;27585;-81
2022/07/18 09:49:10;;;;;;;3.37;1.52;;;;;;;29.26;35.05;98047.59;1697969;84;25462;-82
2022/07/18 09:51:37;;;;;;;2.95;1.30;;;;;;;29.38;34.69;98053.42;1698211;84;25823;-81
2022/07/18 09:54:04;;;;;;;1.60;1.27;;;;;;;29.05;33.07;98050.64;1697847;84;26425;-81
2022/07/18 09:56:33;;;;;;;4.40;1.47;;;;;;;28.85;33.91;98054.74;1698167;84;25807;-81
2022/07/18 09:58:59;;;;;;;2.47;1.50;;;;;;;29.07;33.55;98048.94;1698161;84;27566;-82
2022/07/18 10:01:29;;;;;;;2.90;1.40;;;;;;;29.19;33.60;98045.84;1697691;84;25782;-81
2022/07/18 10:03:58;;;;;;;1.98;1.17;;;;;;;29.34;32.95;98050.19;1698203;84;25307;-81
2022/07/18 10:06:25;;;;;;;3.25;1.45;;;;;;;29.43;32.76;98044.14;1730149;81;25781;-81
2022/07/18 10:08:55;;;;;;;1.95;1.10;;;;;;;29.50;32.63;98036.14;1755574;81;25786;-81
2022/07/18 10:11:23;;;;;;;1.10;0.90;;;;;;;29.51;31.01;98038.36;1832133;77;27368;-82
2022/07/18 10:13:52;;;;;;;2.05;1.12;;;;;;;29.08;32.01;98038.08;1844711;77;25640;-81
2022/07/18 10:16:19;;;;;;;2.52;1.45;;;;;;;29.16;32.12;98033.13;1844572;77;25740;-81
2022/07/18 10:18:45;;;;;;;3.25;1.42;;;;;;;29.16;32.14;98027.57;1845050;76;25687;-81
2022/07/18 10:21:14;;;;;;;3.25;1.40;;;;;;;29.22;31.81;98025.72;1844849;77;25613;-81
2022/07/18 10:23:44;;;;;;;3.95;1.40;;;;;;;29.19;32.26;98028.34;1844808;77;27438;-82
2022/07/18 10:26:21;;;;;;;2.77;1.25;;;;;;;29.32;32.15;98029.66;1844853;77;25671;-81
2022/07/18 10:29:02;;;;;;;3.67;1.30;;;;;;;29.38;31.58;98023.41;1844880;76;25804;-81
2022/07/18 10:31:38;;;;;;;2.30;1.02;;;;;;;29.34;31.33;98021.00;1825253;78;25730;-81
2022/07/18 10:34:11;;;;;;;3.22;1.37;;;;;;;29.34;32.10;98016.83;1824787;78;25827;-81
2022/07/18 10:36:54;;;;;;;2.17;1.20;;;;;;;29.33;31.48;98020.74;1824891;78;27706;-81
2022/07/18 10:39:40;;;;;;;1.95;1.30;;;;;;;29.20;31.62;98014.69;1825184;78;26259;-82
2022/07/18 10:42:18;;;;;;;2.52;1.10;;;;;;;29.42;31.07;98016.08;1825189;78;25805;-81
2022/07/18 10:44:45;;;;;;;4.50;1.30;;;;;;;29.69;30.90;98018.67;1825096;78;25769;-81
2022/07/18 10:47:23;;;;;;;3.27;1.25;;;;;;;29.84;30.81;98010.44;1824890;78;25828;-81
2022/07/18 10:49:57;;;;;;;2.27;1.37;;;;;;;30.03;30.57;98015.78;1825088;78;27391;-81
2022/07/18 10:52:33;;;;;;;4.30;1.75;;;;;;;30.13;30.13;98010.48;1785887;80;25757;-78
2022/07/18 10:55:17;;;;;;;2.70;1.20;;;;;;;30.08;30.04;98012.83;1811073;79;25765;-80
2022/07/18 10:57:54;;;;;;;1.82;1.27;;;;;;;29.83;30.30;98005.22;1785978;80;25909;-81
2022/07/18 11:00:29;;;;;;;6.58;1.22;;;;;;;29.58;31.00;98007.58;1809399;79;25743;-80
2022/07/18 11:03:09;;;;;;;4.35;1.67;;;;;;;29.68;30.73;98007.29;1813821;79;28152;-80
2022/07/18 11:05:43;;;;;;;3.25;1.35;;;;;;;29.37;30.46;98005.05;1755853;81;25299;-79
2022/07/18 11:08:18;;;;;;;2.90;1.60;;;;;;;29.16;31.26;97998.39;1827198;78;25765;-79
2022/07/18 11:10:51;;;;;;;2.62;1.60;;;;;;;29.29;31.34;97998.88;1755108;81;26636;-79
2022/07/18 11:13:35;;;;;;;3.60;1.15;;;;;;;29.03;30.67;97995.36;1825182;78;25834;-79
2022/07/18 11:16:18;;;;;;;4.22;1.30;;;;;;;28.77;30.89;97997.10;1824905;78;27408;-78
2022/07/18 11:18:50;;;;;;;3.70;1.42;;;;;;;28.83;31.29;97990.33;1754643;81;25709;-78
2022/07/18 11:21:30;;;;;;;2.50;1.20;;;;;;;29.08;30.85;97986.66;1824981;78;25424;-79
2022/07/18 11:24:07;;;;;;;3.02;1.30;;;;;;;29.09;30.81;97989.69;1717898;83;25837;-78
2022/07/18 11:26:36;;;;;;;2.85;1.30;;;;;;;28.78;30.68;97976.55;1687743;85;25632;-78
2022/07/18 11:29:05;;;;;;;3.35;1.50;;;;;;;28.92;31.30;97980.09;1687750;85;27395;-78
2022/07/18 11:31:44;;;;;;;4.50;1.55;;;;;;;28.94;31.83;97979.20;1687586;85;25825;-79
2022/07/18 11:34:11;;;;;;;2.42;1.27;;;;;;;28.74;31.03;97985.22;1687737;85;25324;-77
2022/07/18 11:36:41;;;;;;;2.95;1.50;;;;;;;28.47;31.88;97986.17;1687629;85;25785;-77
2022/07/18 11:39:09;;;;;;;2.85;1.10;;;;;;;28.56;31.95;97986.23;1687839;85;25791;-78
2022/07/18 11:44:26;;;;;;;3.15;1.35;;;;;;;28.69;31.63;97982.59;1621363;87;25803;-78
2022/07/18 11:47:09;;;;;;;5.03;1.47;;;;;;;28.71;31.34;97970.59;1575764;89;25827;-78